sensor_id;sensor_type;location;lat;lon;timestamp;pressure;altitude;pressure_sealevel;temperature;humidity
64253;BME280;50592;52.958;-7.470;2023-04-07T00:01:58;100899.63;;;5.60;100.00
64253;BME280;50592;52.958;-7.470;2023-04-07T00:04:24;100894.06;;;5.52;100.00
64253;BME280;50592;52.958;-7.470;2023-04-07T00:06:50;100896.66;;;5.52;100.00
64253;BME280;50592;52.958;-7.470;2023-04-07T00:09:15;100899.09;;;5.55;100.00
64253;BME280;50592;52.958;-7.470;2023-04-07T00:11:41;100906.75;;;5.58;100.00
64253;BME280;50592;52.958;-7.470;2023-04-07T00:14:07;100896.78;;;5.50;100.00
64253;BME280;50592;52.958;-7.470;2023-04-07T00:16:33;100895.31;;;5.46;100.00
64253;BME280;50592;52.958;-7.470;2023-04-07T00:18:58;100894.91;;;5.52;100.00
64253;BME280;50592;52.958;-7.470;2023-04-07T00:21:24;100887.94;;;5.51;100.00
64253;BME280;50592;52.958;-7.470;2023-04-07T00:23:51;100899.69;;;5.45;100.00
64253;BME280;50592;52.958;-7.470;2023-04-07T00:26:17;100892.88;;;5.43;100.00
64253;BME280;50592;52.958;-7.470;2023-04-07T00:28:43;100897.78;;;5.34;100.00
64253;BME280;50592;52.958;-7.470;2023-04-07T00:31:09;100898.88;;;5.30;100.00
64253;BME280;50592;52.958;-7.470;2023-04-07T00:33:35;100897.00;;;5.32;100.00
64253;BME280;50592;52.958;-7.470;2023-04-07T00:36:00;100892.81;;;5.30;100.00
64253;BME280;50592;52.958;-7.470;2023-04-07T00:38:26;100892.72;;;5.31;100.00
64253;BME280;50592;52.958;-7.470;2023-04-07T00:40:58;100898.88;;;5.30;100.00
64253;BME280;50592;52.958;-7.470;2023-04-07T00:43:24;100895.00;;;5.23;100.00
64253;BME280;50592;52.958;-7.470;2023-04-07T00:45:51;100888.91;;;5.22;100.00
64253;BME280;50592;52.958;-7.470;2023-04-07T00:48:17;100894.78;;;5.26;100.00
64253;BME280;50592;52.958;-7.470;2023-04-07T00:50:43;100897.41;;;5.26;100.00
64253;BME280;50592;52.958;-7.470;2023-04-07T00:53:09;100893.94;;;5.26;100.00
64253;BME280;50592;52.958;-7.470;2023-04-07T00:55:36;100899.38;;;5.22;100.00
64253;BME280;50592;52.958;-7.470;2023-04-07T00:58:01;100899.69;;;5.18;100.00
64253;BME280;50592;52.958;-7.470;2023-04-07T01:00:30;100891.91;;;5.16;100.00
64253;BME280;50592;52.958;-7.470;2023-04-07T01:02:57;100892.97;;;5.14;100.00
64253;BME280;50592;52.958;-7.470;2023-04-07T01:08:16;100893.63;;;5.17;100.00
64253;BME280;50592;52.958;-7.470;2023-04-07T01:10:49;100878.50;;;5.21;100.00
64253;BME280;50592;52.958;-7.470;2023-04-07T01:13:27;100890.59;;;5.24;100.00
64253;BME280;50592;52.958;-7.470;2023-04-07T01:16:08;100888.59;;;5.27;100.00
64253;BME280;50592;52.958;-7.470;2023-04-07T01:18:41;100887.69;;;5.28;100.00
64253;BME280;50592;52.958;-7.470;2023-04-07T01:21:10;100889.16;;;5.32;100.00
64253;BME280;50592;52.958;-7.470;2023-04-07T01:23:51;100888.13;;;5.35;100.00
64253;BME280;50592;52.958;-7.470;2023-04-07T01:26:29;100890.09;;;5.31;100.00
64253;BME280;50592;52.958;-7.470;2023-04-07T01:31:39;100886.84;;;5.28;100.00
64253;BME280;50592;52.958;-7.470;2023-04-07T01:34:08;100880.75;;;5.27;100.00
64253;BME280;50592;52.958;-7.470;2023-04-07T01:36:34;100876.44;;;5.26;100.00
64253;BME280;50592;52.958;-7.470;2023-04-07T01:39:00;100873.47;;;5.18;100.00
64253;BME280;50592;52.958;-7.470;2023-04-07T01:41:26;100874.06;;;5.08;100.00
64253;BME280;50592;52.958;-7.470;2023-04-07T01:43:52;100871.47;;;4.94;100.00
64253;BME280;50592;52.958;-7.470;2023-04-07T01:46:18;100880.41;;;4.77;100.00
64253;BME280;50592;52.958;-7.470;2023-04-07T01:48:44;100879.84;;;4.71;100.00
64253;BME280;50592;52.958;-7.470;2023-04-07T01:51:12;100878.16;;;4.70;100.00
64253;BME280;50592;52.958;-7.470;2023-04-07T01:53:42;100875.63;;;4.69;100.00
64253;BME280;50592;52.958;-7.470;2023-04-07T01:56:07;100873.31;;;4.64;100.00
64253;BME280;50592;52.958;-7.470;2023-04-07T01:58:35;100877.69;;;4.64;100.00
64253;BME280;50592;52.958;-7.470;2023-04-07T02:01:03;100878.06;;;4.57;100.00
64253;BME280;50592;52.958;-7.470;2023-04-07T02:03:30;100882.09;;;4.49;100.00
64253;BME280;50592;52.958;-7.470;2023-04-07T02:06:07;100883.31;;;4.43;100.00
64253;BME280;50592;52.958;-7.470;2023-04-07T02:08:35;100871.91;;;4.44;100.00
64253;BME280;50592;52.958;-7.470;2023-04-07T02:11:01;100876.13;;;4.46;100.00
64253;BME280;50592;52.958;-7.470;2023-04-07T02:13:31;100869.78;;;4.51;100.00
64253;BME280;50592;52.958;-7.470;2023-04-07T02:15:57;100876.50;;;4.55;100.00
64253;BME280;50592;52.958;-7.470;2023-04-07T02:18:23;100877.34;;;4.55;100.00
64253;BME280;50592;52.958;-7.470;2023-04-07T02:20:51;100877.25;;;4.57;100.00
64253;BME280;50592;52.958;-7.470;2023-04-07T02:23:17;100870.41;;;4.54;100.00
64253;BME280;50592;52.958;-7.470;2023-04-07T02:25:43;100871.34;;;4.53;100.00
64253;BME280;50592;52.958;-7.470;2023-04-07T02:28:08;100872.75;;;4.59;100.00
64253;BME280;50592;52.958;-7.470;2023-04-07T02:30:34;100870.03;;;4.61;100.00
64253;BME280;50592;52.958;-7.470;2023-04-07T02:33:00;100869.84;;;4.64;100.00
64253;BME280;50592;52.958;-7.470;2023-04-07T02:35:26;100871.53;;;4.65;100.00
64253;BME280;50592;52.958;-7.470;2023-04-07T02:37:52;100871.63;;;4.63;100.00
64253;BME280;50592;52.958;-7.470;2023-04-07T02:40:18;100871.63;;;4.63;100.00
64253;BME280;50592;52.958;-7.470;2023-04-07T02:42:44;100867.22;;;4.64;100.00
64253;BME280;50592;52.958;-7.470;2023-04-07T02:45:10;100870.03;;;4.61;100.00
64253;BME280;50592;52.958;-7.470;2023-04-07T02:47:37;100863.88;;;4.62;100.00
64253;BME280;50592;52.958;-7.470;2023-04-07T02:50:03;100870.50;;;4.53;100.00
64253;BME280;50592;52.958;-7.470;2023-04-07T02:52:32;100876.13;;;4.46;100.00
64253;BME280;50592;52.958;-7.470;2023-04-07T02:54:59;100865.66;;;4.46;100.00
64253;BME280;50592;52.958;-7.470;2023-04-07T02:57:26;100871.63;;;4.34;100.00
64253;BME280;50592;52.958;-7.470;2023-04-07T02:59:56;100870.03;;;4.17;100.00
64253;BME280;50592;52.958;-7.470;2023-04-07T03:02:26;100864.59;;;4.05;100.00
64253;BME280;50592;52.958;-7.470;2023-04-07T03:04:52;100863.19;;;4.00;100.00
64253;BME280;50592;52.958;-7.470;2023-04-07T03:07:20;100862.34;;;3.99;100.00
64253;BME280;50592;52.958;-7.470;2023-04-07T03:09:48;100854.41;;;4.01;100.00
64253;BME280;50592;52.958;-7.470;2023-04-07T03:12:16;100856.34;;;3.97;100.00
64253;BME280;50592;52.958;-7.470;2023-04-07T03:14:42;100863.38;;;3.96;100.00
64253;BME280;50592;52.958;-7.470;2023-04-07T03:17:07;100855.25;;;4.01;100.00
64253;BME280;50592;52.958;-7.470;2023-04-07T03:19:33;100858.59;;;4.03;100.00
64253;BME280;50592;52.958;-7.470;2023-04-07T03:22:00;100858.59;;;4.03;100.00
64253;BME280;50592;52.958;-7.470;2023-04-07T03:24:26;100862.16;;;4.02;100.00
64253;BME280;50592;52.958;-7.470;2023-04-07T03:26:52;100861.97;;;4.05;100.00
64253;BME280;50592;52.958;-7.470;2023-04-07T03:29:23;100868.59;;;4.11;100.00
64253;BME280;50592;52.958;-7.470;2023-04-07T03:31:50;100868.34;;;4.16;100.00
64253;BME280;50592;52.958;-7.470;2023-04-07T03:34:20;100869.75;;;4.21;100.00
64253;BME280;50592;52.958;-7.470;2023-04-07T03:36:46;100869.94;;;4.18;100.00
64253;BME280;50592;52.958;-7.470;2023-04-07T03:39:11;100870.03;;;4.17;100.00
64253;BME280;50592;52.958;-7.470;2023-04-07T03:41:37;100873.38;;;4.19;100.00
64253;BME280;50592;52.958;-7.470;2023-04-07T03:44:04;100865.44;;;4.20;100.00
64253;BME280;50592;52.958;-7.470;2023-04-07T03:46:31;100869.00;;;4.19;100.00
64253;BME280;50592;52.958;-7.470;2023-04-07T03:48:57;100863.94;;;4.16;100.00
64253;BME280;50592;52.958;-7.470;2023-04-07T03:51:23;100857.88;;;4.16;100.00
64253;BME280;50592;52.958;-7.470;2023-04-07T03:53:53;100864.81;;;4.17;100.00
64253;BME280;50592;52.958;-7.470;2023-04-07T03:56:28;100867.22;;;4.20;100.00
64253;BME280;50592;52.958;-7.470;2023-04-07T03:58:56;100866.56;;;4.16;100.00
64253;BME280;50592;52.958;-7.470;2023-04-07T04:01:27;100867.78;;;4.11;100.00
64253;BME280;50592;52.958;-7.470;2023-04-07T04:03:55;100872.53;;;4.04;100.00
64253;BME280;50592;52.958;-7.470;2023-04-07T04:06:26;100860.59;;;4.00;100.00
64253;BME280;50592;52.958;-7.470;2023-04-07T04:08:56;100872.81;;;3.99;100.00
64253;BME280;50592;52.958;-7.470;2023-04-07T04:11:24;100870.28;;;3.97;100.00
64253;BME280;50592;52.958;-7.470;2023-04-07T04:13:56;100868.63;;;3.96;100.00
64253;BME280;50592;52.958;-7.470;2023-04-07T04:16:22;100865.91;;;3.98;100.00
64253;BME280;50592;52.958;-7.470;2023-04-07T04:18:50;100858.25;;;3.95;100.00
64253;BME280;50592;52.958;-7.470;2023-04-07T04:21:16;100857.28;;;3.96;100.00
64253;BME280;50592;52.958;-7.470;2023-04-07T04:23:43;100856.44;;;3.95;100.00
64253;BME280;50592;52.958;-7.470;2023-04-07T04:26:08;100858.88;;;3.99;100.00
64253;BME280;50592;52.958;-7.470;2023-04-07T04:28:35;100857.97;;;4.00;100.00
64253;BME280;50592;52.958;-7.470;2023-04-07T04:31:03;100852.47;;;4.04;100.00
64253;BME280;50592;52.958;-7.470;2023-04-07T04:33:33;100850.84;;;4.02;100.00
64253;BME280;50592;52.958;-7.470;2023-04-07T04:35:58;100851.03;;;3.99;100.00
64253;BME280;50592;52.958;-7.470;2023-04-07T04:38:25;100850.31;;;3.96;100.00
64253;BME280;50592;52.958;-7.470;2023-04-07T04:41:04;100849.63;;;3.93;100.00
64253;BME280;50592;52.958;-7.470;2023-04-07T04:43:30;100846.63;;;3.84;100.00
64253;BME280;50592;52.958;-7.470;2023-04-07T04:45:57;100847.94;;;3.77;100.00
64253;BME280;50592;52.958;-7.470;2023-04-07T04:48:26;100847.34;;;3.72;100.00
64253;BME280;50592;52.958;-7.470;2023-04-07T04:50:52;100848.19;;;3.72;100.00
64253;BME280;50592;52.958;-7.470;2023-04-07T04:53:19;100846.41;;;3.73;100.00
64253;BME280;50592;52.958;-7.470;2023-04-07T04:55:53;100851.72;;;3.71;100.00
64253;BME280;50592;52.958;-7.470;2023-04-07T04:58:34;100848.38;;;3.69;100.00
64253;BME280;50592;52.958;-7.470;2023-04-07T05:01:00;100847.78;;;3.64;100.00
64253;BME280;50592;52.958;-7.470;2023-04-07T05:03:34;100844.25;;;3.65;100.00
64253;BME280;50592;52.958;-7.470;2023-04-07T05:06:03;100840.88;;;3.63;100.00
64253;BME280;50592;52.958;-7.470;2023-04-07T05:08:30;100832.19;;;3.63;100.00
64253;BME280;50592;52.958;-7.470;2023-04-07T05:10:56;100840.13;;;3.61;100.00
64253;BME280;50592;52.958;-7.470;2023-04-07T05:13:25;100830.50;;;3.62;100.00
64253;BME280;50592;52.958;-7.470;2023-04-07T05:15:51;100837.44;;;3.63;100.00
64253;BME280;50592;52.958;-7.470;2023-04-07T05:18:17;100833.28;;;3.58;100.00
64253;BME280;50592;52.958;-7.470;2023-04-07T05:20:44;100826.75;;;3.51;100.00
64253;BME280;50592;52.958;-7.470;2023-04-07T05:23:11;100825.06;;;3.50;100.00
64253;BME280;50592;52.958;-7.470;2023-04-07T05:25:37;100828.59;;;3.49;100.00
64253;BME280;50592;52.958;-7.470;2023-04-07T05:28:04;100826.16;;;3.46;100.00
64253;BME280;50592;52.958;-7.470;2023-04-07T05:30:30;100825.34;;;3.45;100.00
64253;BME280;50592;52.958;-7.470;2023-04-07T05:32:56;100814.88;;;3.45;100.00
64253;BME280;50592;52.958;-7.470;2023-04-07T05:35:40;100826.16;;;3.46;100.00
64253;BME280;50592;52.958;-7.470;2023-04-07T05:38:06;100823.38;;;3.49;100.00
64253;BME280;50592;52.958;-7.470;2023-04-07T05:40:32;100820.66;;;3.51;100.00
64253;BME280;50592;52.958;-7.470;2023-04-07T05:43:01;100816.56;;;3.46;100.00
64253;BME280;50592;52.958;-7.470;2023-04-07T05:45:28;100811.59;;;3.42;100.00
64253;BME280;50592;52.958;-7.470;2023-04-07T05:47:54;100819.03;;;3.33;100.00
64253;BME280;50592;52.958;-7.470;2023-04-07T05:50:26;100819.66;;;3.22;100.00
64253;BME280;50592;52.958;-7.470;2023-04-07T05:52:53;100817.06;;;3.06;100.00
64253;BME280;50592;52.958;-7.470;2023-04-07T05:55:24;100818.44;;;2.97;100.00
64253;BME280;50592;52.958;-7.470;2023-04-07T05:57:51;100818.25;;;3.01;100.00
64253;BME280;50592;52.958;-7.470;2023-04-07T06:00:19;100819.84;;;3.03;100.00
64253;BME280;50592;52.958;-7.470;2023-04-07T06:02:55;100819.75;;;3.05;100.00
64253;BME280;50592;52.958;-7.470;2023-04-07T06:05:21;100820.00;;;3.00;100.00
64253;BME280;50592;52.958;-7.470;2023-04-07T06:07:51;100820.00;;;3.00;100.00
64253;BME280;50592;52.958;-7.470;2023-04-07T06:10:17;100822.63;;;3.00;100.00
64253;BME280;50592;52.958;-7.470;2023-04-07T06:12:44;100823.66;;;2.97;100.00
64253;BME280;50592;52.958;-7.470;2023-04-07T06:15:10;100829.78;;;2.96;100.00
64253;BME280;50592;52.958;-7.470;2023-04-07T06:17:36;100829.44;;;3.03;100.00
64253;BME280;50592;52.958;-7.470;2023-04-07T06:20:02;100833.22;;;3.13;100.00
64253;BME280;50592;52.958;-7.470;2023-04-07T06:22:31;100826.47;;;3.25;100.00
64253;BME280;50592;52.958;-7.470;2023-04-07T06:24:58;100825.59;;;3.41;100.00
64253;BME280;50592;52.958;-7.470;2023-04-07T06:27:24;100831.53;;;3.59;100.00
64253;BME280;50592;52.958;-7.470;2023-04-07T06:29:50;100827.56;;;3.82;100.00
64253;BME280;50592;52.958;-7.470;2023-04-07T06:32:15;100831.63;;;4.03;100.00
64253;BME280;50592;52.958;-7.470;2023-04-07T06:34:41;100833.88;;;4.24;100.00
64253;BME280;50592;52.958;-7.470;2023-04-07T06:37:07;100833.22;;;4.34;100.00
64253;BME280;50592;52.958;-7.470;2023-04-07T06:39:33;100834.59;;;4.40;100.00
64253;BME280;50592;52.958;-7.470;2023-04-07T06:41:59;100833.38;;;4.46;100.00
64253;BME280;50592;52.958;-7.470;2023-04-07T06:44:26;100834.03;;;4.50;100.00
64253;BME280;50592;52.958;-7.470;2023-04-07T06:46:51;100831.22;;;4.53;100.00
64253;BME280;50592;52.958;-7.470;2023-04-07T06:49:18;100830.47;;;4.65;100.00
64253;BME280;50592;52.958;-7.470;2023-04-07T06:51:43;100823.72;;;4.76;100.00
64253;BME280;50592;52.958;-7.470;2023-04-07T06:54:09;100823.91;;;4.87;100.00
64253;BME280;50592;52.958;-7.470;2023-04-07T06:56:39;100826.75;;;4.97;100.00
64253;BME280;50592;52.958;-7.470;2023-04-07T06:59:05;100825.31;;;5.06;100.00
64253;BME280;50592;52.958;-7.470;2023-04-07T07:01:31;100832.69;;;5.14;100.00
64253;BME280;50592;52.958;-7.470;2023-04-07T07:03:57;100825.91;;;5.24;100.00
64253;BME280;50592;52.958;-7.470;2023-04-07T07:06:25;100823.47;;;5.49;100.00
64253;BME280;50592;52.958;-7.470;2023-04-07T07:08:51;100824.50;;;5.59;100.00
64253;BME280;50592;52.958;-7.470;2023-04-07T07:11:17;100824.50;;;5.59;100.00
64253;BME280;50592;52.958;-7.470;2023-04-07T07:13:42;100833.25;;;5.73;100.00
64253;BME280;50592;52.958;-7.470;2023-04-07T07:16:09;100837.16;;;5.93;100.00
64253;BME280;50592;52.958;-7.470;2023-04-07T07:18:37;100831.84;;;6.07;100.00
64253;BME280;50592;52.958;-7.470;2023-04-07T07:21:02;100830.56;;;6.26;100.00
64253;BME280;50592;52.958;-7.470;2023-04-07T07:23:28;100829.91;;;6.49;100.00
64253;BME280;50592;52.958;-7.470;2023-04-07T07:25:54;100834.91;;;6.65;100.00
64253;BME280;50592;52.958;-7.470;2023-04-07T07:28:20;100834.03;;;6.77;100.00
64253;BME280;50592;52.958;-7.470;2023-04-07T07:30:46;100827.19;;;6.88;100.00
64253;BME280;50592;52.958;-7.470;2023-04-07T07:33:12;100830.19;;;6.94;100.00
64253;BME280;50592;52.958;-7.470;2023-04-07T07:35:38;100831.88;;;6.95;100.00
64253;BME280;50592;52.958;-7.470;2023-04-07T07:38:04;100826.06;;;7.03;100.00
64253;BME280;50592;52.958;-7.470;2023-04-07T07:40:30;100825.69;;;7.21;100.00
64253;BME280;50592;52.958;-7.470;2023-04-07T07:42:56;100832.88;;;7.30;100.00
64253;BME280;50592;52.958;-7.470;2023-04-07T07:45:22;100829.34;;;7.43;100.00
64253;BME280;50592;52.958;-7.470;2023-04-07T07:47:48;100836.53;;;7.52;100.00
64253;BME280;50592;52.958;-7.470;2023-04-07T07:50:14;100834.66;;;7.54;100.00
64253;BME280;50592;52.958;-7.470;2023-04-07T07:52:39;100829.28;;;7.56;100.00
64253;BME280;50592;52.958;-7.470;2023-04-07T07:55:06;100838.94;;;7.55;100.00
64253;BME280;50592;52.958;-7.470;2023-04-07T07:57:31;100836.28;;;7.44;100.00
64253;BME280;50592;52.958;-7.470;2023-04-07T07:59:57;100832.44;;;7.37;100.00
64253;BME280;50592;52.958;-7.470;2023-04-07T08:02:23;100839.59;;;7.35;100.00
64253;BME280;50592;52.958;-7.470;2023-04-07T08:04:55;100842.91;;;7.25;100.00
64253;BME280;50592;52.958;-7.470;2023-04-07T08:07:21;100840.78;;;7.30;100.00
64253;BME280;50592;52.958;-7.470;2023-04-07T08:09:46;100831.00;;;7.32;100.00
64253;BME280;50592;52.958;-7.470;2023-04-07T08:12:12;100841.06;;;7.39;100.00
64253;BME280;50592;52.958;-7.470;2023-04-07T08:14:38;100841.91;;;7.51;100.00
64253;BME280;50592;52.958;-7.470;2023-04-07T08:17:04;100843.03;;;7.60;100.00
64253;BME280;50592;52.958;-7.470;2023-04-07T08:19:30;100838.41;;;7.75;100.00
64253;BME280;50592;52.958;-7.470;2023-04-07T08:21:55;100845.75;;;7.94;100.00
64253;BME280;50592;52.958;-7.470;2023-04-07T08:24:21;100842.41;;;8.03;100.00
64253;BME280;50592;52.958;-7.470;2023-04-07T08:26:46;100839.44;;;8.19;100.00
64253;BME280;50592;52.958;-7.470;2023-04-07T08:29:12;100834.63;;;8.36;100.00
64253;BME280;50592;52.958;-7.470;2023-04-07T08:31:38;100828.53;;;8.47;100.00
64253;BME280;50592;52.958;-7.470;2023-04-07T08:34:04;100827.13;;;8.54;100.00
64253;BME280;50592;52.958;-7.470;2023-04-07T08:36:29;100832.72;;;8.73;100.00
64253;BME280;50592;52.958;-7.470;2023-04-07T08:38:55;100826.78;;;8.92;100.00
64253;BME280;50592;52.958;-7.470;2023-04-07T08:41:43;100826.06;;;9.01;100.00
64253;BME280;50592;52.958;-7.470;2023-04-07T08:44:09;100826.72;;;9.15;100.00
64253;BME280;50592;52.958;-7.470;2023-04-07T08:46:37;100826.44;;;9.29;100.00
64253;BME280;50592;52.958;-7.470;2023-04-07T08:52:52;100830.13;;;9.60;100.00
64253;BME280;50592;52.958;-7.470;2023-04-07T09:11:33;100825.63;;;9.93;100.00
64253;BME280;50592;52.958;-7.470;2023-04-07T09:14:38;100831.03;;;9.91;100.00
64253;BME280;50592;52.958;-7.470;2023-04-07T09:17:10;100828.72;;;9.98;100.00
64253;BME280;50592;52.958;-7.470;2023-04-07T09:24:26;100828.19;;;10.04;100.00
64253;BME280;50592;52.958;-7.470;2023-04-07T09:28:12;100830.63;;;10.17;100.00
64253;BME280;50592;52.958;-7.470;2023-04-07T09:35:51;100834.47;;;10.45;100.00
64253;BME280;50592;52.958;-7.470;2023-04-07T10:02:32;100839.22;;;10.92;100.00
64253;BME280;50592;52.958;-7.470;2023-04-07T10:04:58;100831.72;;;10.97;100.00
64253;BME280;50592;52.958;-7.470;2023-04-07T10:07:24;100834.19;;;11.09;100.00
64253;BME280;50592;52.958;-7.470;2023-04-07T10:09:49;100839.06;;;11.13;100.00
64253;BME280;50592;52.958;-7.470;2023-04-07T10:12:16;100838.81;;;11.16;100.00
64253;BME280;50592;52.958;-7.470;2023-04-07T10:14:42;100837.28;;;11.24;100.00
64253;BME280;50592;52.958;-7.470;2023-04-07T10:17:11;100837.16;;;11.25;100.00
64253;BME280;50592;52.958;-7.470;2023-04-07T10:19:43;100838.53;;;11.29;100.00
64253;BME280;50592;52.958;-7.470;2023-04-07T10:22:09;100840.09;;;11.32;100.00
64253;BME280;50592;52.958;-7.470;2023-04-07T10:27:08;100842.69;;;11.42;100.00
64253;BME280;50592;52.958;-7.470;2023-04-07T10:29:36;100836.16;;;11.56;100.00
64253;BME280;50592;52.958;-7.470;2023-04-07T10:32:04;100843.69;;;11.61;100.00
64253;BME280;50592;52.958;-7.470;2023-04-07T10:37:27;100836.69;;;11.60;100.00
64253;BME280;50592;52.958;-7.470;2023-04-07T10:45:07;100830.44;;;11.61;100.00
64253;BME280;50592;52.958;-7.470;2023-04-07T10:47:34;100826.50;;;11.75;100.00
64253;BME280;50592;52.958;-7.470;2023-04-07T10:52:36;100825.34;;;11.97;100.00
64253;BME280;50592;52.958;-7.470;2023-04-07T11:00:38;100817.06;;;12.20;100.00
64253;BME280;50592;52.958;-7.470;2023-04-07T11:03:10;100824.19;;;12.20;100.00
64253;BME280;50592;52.958;-7.470;2023-04-07T11:05:39;100822.50;;;12.19;100.00
64253;BME280;50592;52.958;-7.470;2023-04-07T11:08:05;100821.63;;;12.28;100.00
64253;BME280;50592;52.958;-7.470;2023-04-07T11:10:34;100822.47;;;12.28;100.00
64253;BME280;50592;52.958;-7.470;2023-04-07T11:13:02;100817.72;;;12.32;100.00
64253;BME280;50592;52.958;-7.470;2023-04-07T11:15:28;100822.44;;;12.38;100.00
64253;BME280;50592;52.958;-7.470;2023-04-07T11:18:06;100827.69;;;12.48;100.00
64253;BME280;50592;52.958;-7.470;2023-04-07T11:20:42;100815.19;;;12.59;100.00
64253;BME280;50592;52.958;-7.470;2023-04-07T11:23:08;100829.00;;;12.62;100.00
64253;BME280;50592;52.958;-7.470;2023-04-07T11:25:34;100822.16;;;12.60;100.00
64253;BME280;50592;52.958;-7.470;2023-04-07T11:28:00;100824.41;;;12.64;100.00
64253;BME280;50592;52.958;-7.470;2023-04-07T11:30:27;100823.16;;;12.59;100.00
64253;BME280;50592;52.958;-7.470;2023-04-07T11:32:53;100811.00;;;12.66;100.00
64253;BME280;50592;52.958;-7.470;2023-04-07T11:35:21;100815.28;;;12.67;100.00
64253;BME280;50592;52.958;-7.470;2023-04-07T11:37:47;100810.84;;;12.68;100.00
64253;BME280;50592;52.958;-7.470;2023-04-07T11:40:13;100822.25;;;12.68;100.00
64253;BME280;50592;52.958;-7.470;2023-04-07T11:42:56;100820.00;;;12.73;100.00
64253;BME280;50592;52.958;-7.470;2023-04-07T11:45:22;100827.41;;;12.70;100.00
64253;BME280;50592;52.958;-7.470;2023-04-07T11:47:47;100827.72;;;12.67;100.00
64253;BME280;50592;52.958;-7.470;2023-04-07T11:50:15;100823.50;;;12.74;100.00
64253;BME280;50592;52.958;-7.470;2023-04-07T11:52:44;100820.25;;;12.80;100.00
64253;BME280;50592;52.958;-7.470;2023-04-07T11:55:20;100815.25;;;12.77;100.00
64253;BME280;50592;52.958;-7.470;2023-04-07T11:57:46;100819.91;;;12.65;100.00
64253;BME280;50592;52.958;-7.470;2023-04-07T12:00:12;100820.34;;;12.60;100.00
64253;BME280;50592;52.958;-7.470;2023-04-07T12:02:38;100816.34;;;12.74;100.00
64253;BME280;50592;52.958;-7.470;2023-04-07T12:05:04;100817.50;;;12.90;100.00
64253;BME280;50592;52.958;-7.470;2023-04-07T12:07:30;100821.16;;;12.89;100.00
64253;BME280;50592;52.958;-7.470;2023-04-07T12:09:55;100815.16;;;12.87;100.00
64253;BME280;50592;52.958;-7.470;2023-04-07T12:12:29;100811.47;;;12.98;100.00
64253;BME280;50592;52.958;-7.470;2023-04-07T12:14:57;100810.91;;;13.12;95.41
64253;BME280;50592;52.958;-7.470;2023-04-07T12:17:24;100802.22;;;13.20;91.27
64253;BME280;50592;52.958;-7.470;2023-04-07T12:19:50;100803.72;;;13.23;87.06
64253;BME280;50592;52.958;-7.470;2023-04-07T12:22:15;100805.16;;;13.35;87.23
64253;BME280;50592;52.958;-7.470;2023-04-07T12:24:41;100801.81;;;13.33;79.42
64253;BME280;50592;52.958;-7.470;2023-04-07T12:27:06;100803.09;;;13.29;78.39
64253;BME280;50592;52.958;-7.470;2023-04-07T12:29:33;100805.84;;;13.37;81.05
64253;BME280;50592;52.958;-7.470;2023-04-07T12:31:58;100801.72;;;13.43;83.31
64253;BME280;50592;52.958;-7.470;2023-04-07T12:34:25;100795.72;;;13.41;84.73
64253;BME280;50592;52.958;-7.470;2023-04-07T12:36:51;100798.59;;;13.48;84.84
64253;BME280;50592;52.958;-7.470;2023-04-07T12:39:17;100799.38;;;13.58;89.68
64253;BME280;50592;52.958;-7.470;2023-04-07T12:41:43;100785.56;;;13.55;83.33
64253;BME280;50592;52.958;-7.470;2023-04-07T12:44:10;100804.91;;;13.47;83.84
64253;BME280;50592;52.958;-7.470;2023-04-07T12:46:36;100793.84;;;13.33;79.39
64253;BME280;50592;52.958;-7.470;2023-04-07T12:49:01;100795.28;;;13.27;87.37
64253;BME280;50592;52.958;-7.470;2023-04-07T12:51:27;100799.03;;;13.17;79.88
64253;BME280;50592;52.958;-7.470;2023-04-07T12:53:53;100790.59;;;13.21;83.53
64253;BME280;50592;52.958;-7.470;2023-04-07T12:56:19;100799.16;;;13.33;86.12
64253;BME280;50592;52.958;-7.470;2023-04-07T12:58:46;100796.09;;;13.46;79.91
64253;BME280;50592;52.958;-7.470;2023-04-07T13:01:12;100787.00;;;13.49;77.94
64253;BME280;50592;52.958;-7.470;2023-04-07T13:03:39;100794.22;;;13.38;77.32
64253;BME280;50592;52.958;-7.470;2023-04-07T13:06:04;100803.19;;;13.37;77.94
64253;BME280;50592;52.958;-7.470;2023-04-07T13:08:30;100791.41;;;13.40;75.94
64253;BME280;50592;52.958;-7.470;2023-04-07T13:10:56;100783.97;;;13.44;77.70
64253;BME280;50592;52.958;-7.470;2023-04-07T13:13:22;100790.09;;;13.44;75.90
64253;BME280;50592;52.958;-7.470;2023-04-07T13:15:47;100776.19;;;13.24;76.11
64253;BME280;50592;52.958;-7.470;2023-04-07T13:18:13;100785.06;;;13.14;76.26
64253;BME280;50592;52.958;-7.470;2023-04-07T13:20:39;100781.09;;;13.37;83.08
64253;BME280;50592;52.958;-7.470;2023-04-07T13:23:04;100775.53;;;13.48;77.22
64253;BME280;50592;52.958;-7.470;2023-04-07T13:25:30;100770.63;;;13.54;75.59
64253;BME280;50592;52.958;-7.470;2023-04-07T13:27:56;100773.28;;;13.54;73.44
64253;BME280;50592;52.958;-7.470;2023-04-07T13:30:21;100781.09;;;13.55;76.50
64253;BME280;50592;52.958;-7.470;2023-04-07T13:32:47;100778.47;;;13.63;82.22
64253;BME280;50592;52.958;-7.470;2023-04-07T13:35:16;100785.34;;;13.74;73.42
64253;BME280;50592;52.958;-7.470;2023-04-07T13:37:42;100787.59;;;13.61;73.47
64253;BME280;50592;52.958;-7.470;2023-04-07T13:40:09;100783.34;;;13.50;78.13
64253;BME280;50592;52.958;-7.470;2023-04-07T13:42:35;100781.56;;;13.32;80.80
64253;BME280;50592;52.958;-7.470;2023-04-07T13:45:01;100784.44;;;13.21;81.26
64253;BME280;50592;52.958;-7.470;2023-04-07T13:47:27;100788.09;;;13.01;81.45
64253;BME280;50592;52.958;-7.470;2023-04-07T13:49:54;100780.66;;;12.87;79.93
64253;BME280;50592;52.958;-7.470;2023-04-07T13:52:20;100789.63;;;12.68;80.78
64253;BME280;50592;52.958;-7.470;2023-04-07T13:54:46;100794.88;;;12.49;82.99
64253;BME280;50592;52.958;-7.470;2023-04-07T13:57:11;100779.97;;;12.48;83.87
64253;BME280;50592;52.958;-7.470;2023-04-07T13:59:43;100788.94;;;12.65;86.65